Time;durP1;ratioP1;P1;durP2;ratioP2;P2;SDS_P1;SDS_P2;PMS_P1;PMS_P2;Temp;Humidity;BMP_temperature;BMP_pressure;BME280_temperature;BME280_humidity;BME280_pressure;Samples;Min_cycle;Max_cycle;Signal;HPM_P1;HPM_P2
2023/04/30 00:00:33;;;;;;;;;;;4.00;57.90;;;;;;4112504;28;19925;-82
2023/04/30 00:02:52;;;;;;;;;;;4.00;58.00;;;;;;4124939;28;20013;-82
2023/04/30 00:05:11;;;;;;;;;;;3.90;58.00;;;;;;4114639;28;19929;-82
2023/04/30 00:07:31;;;;;;;;;;;3.90;58.60;;;;;;4114311;28;19941;-82
2023/04/30 00:09:50;;;;;;;;;;;3.90;58.10;;;;;;4111445;28;20399;-82
2023/04/30 00:12:09;;;;;;;;;;;3.90;58.10;;;;;;4112893;28;19972;-82
2023/04/30 00:14:28;;;;;;;;;;;3.90;58.20;;;;;;4110531;28;19977;-82
2023/04/30 00:16:48;;;;;;;;;;;3.80;58.20;;;;;;4112470;28;19998;-82
2023/04/30 00:19:07;;;;;;;;;;;3.80;58.30;;;;;;4110460;28;19937;-82
2023/04/30 00:21:26;;;;;;;;;;;3.80;58.40;;;;;;4113331;28;19925;-82
2023/04/30 00:23:46;;;;;;;;;;;3.80;58.30;;;;;;4111218;28;20088;-82
2023/04/30 00:26:05;;;;;;;;;;;3.80;58.20;;;;;;4109042;28;19938;-82
2023/04/30 00:28:24;;;;;;;;;;;3.70;58.10;;;;;;4129762;28;19960;-82
2023/04/30 00:30:44;;;;;;;;;;;3.70;58.10;;;;;;4112873;28;19945;-82
2023/04/30 00:33:03;;;;;;;;;;;3.70;58.10;;;;;;4114059;28;20013;-82
2023/04/30 00:35:22;;;;;;;;;;;3.70;58.20;;;;;;4106340;28;19940;-82
2023/04/30 00:37:41;;;;;;;;;;;3.70;58.90;;;;;;4111756;28;20245;-82
2023/04/30 00:40:00;;;;;;;;;;;3.70;58.50;;;;;;4112386;28;19972;-82
2023/04/30 00:42:20;;;;;;;;;;;3.70;58.40;;;;;;4113904;28;19933;-82
2023/04/30 00:44:39;;;;;;;;;;;3.60;58.40;;;;;;4113571;28;20483;-82
2023/04/30 00:46:58;;;;;;;;;;;3.60;58.40;;;;;;4113604;28;20276;-82
2023/04/30 00:49:18;;;;;;;;;;;3.60;58.50;;;;;;4125778;28;19936;-82
2023/04/30 00:51:39;;;;;;;;;;;3.60;58.40;;;;;;4114859;28;19987;-82
2023/04/30 00:53:59;;;;;;;;;;;3.70;58.50;;;;;;4107930;28;20040;-82
2023/04/30 00:56:18;;;;;;;;;;;3.60;58.50;;;;;;4110005;28;21146;-82
2023/04/30 00:58:41;;;;;;;;;;;3.60;58.40;;;;;;4114582;28;20075;-81
2023/04/30 01:01:02;;;;;;;;;;;3.60;59.10;;;;;;4108208;28;19925;-82
2023/04/30 01:03:21;;;;;;;;;;;3.60;59.00;;;;;;4121417;28;19928;-82
2023/04/30 01:05:43;;;;;;;;;;;3.60;59.20;;;;;;4112342;28;19968;-82
2023/04/30 01:08:03;;;;;;;;;;;3.70;59.40;;;;;;4115891;28;19920;-82
2023/04/30 01:10:27;;;;;;;;;;;3.70;59.40;;;;;;4113960;28;19949;-83
2023/04/30 01:12:57;;;;;;;;;;;3.70;59.30;;;;;;4115802;28;19925;-83
2023/04/30 01:15:19;;;;;;;;;;;3.70;59.30;;;;;;4114618;28;19925;-83
2023/04/30 01:17:42;;;;;;;;;;;3.80;59.30;;;;;;4114041;28;20396;-82
2023/04/30 01:20:02;;;;;;;;;;;3.80;59.30;;;;;;4111245;28;19970;-82
2023/04/30 01:22:29;;;;;;;;;;;3.80;59.30;;;;;;4113613;28;19921;-83
2023/04/30 01:24:49;;;;;;;;;;;3.80;59.30;;;;;;4118015;28;19944;-83
2023/04/30 01:27:14;;;;;;;;;;;3.80;59.20;;;;;;4114530;28;20013;-83
2023/04/30 01:29:35;;;;;;;;;;;3.80;59.20;;;;;;4114908;28;20103;-82
2023/04/30 01:31:54;;;;;;;;;;;3.80;59.60;;;;;;4118733;28;19965;-83
2023/04/30 01:34:13;;;;;;;;;;;3.80;59.10;;;;;;4118855;28;19945;-83
2023/04/30 01:36:38;;;;;;;;;;;3.80;59.00;;;;;;4115333;28;19933;-83
2023/04/30 01:38:58;;;;;;;;;;;3.70;59.60;;;;;;4115143;28;20343;-83
2023/04/30 01:41:17;;;;;;;;;;;3.70;59.10;;;;;;4116181;28;19925;-83
2023/04/30 01:43:39;;;;;;;;;;;3.70;59.60;;;;;;4122681;28;19926;-83
2023/04/30 01:45:58;;;;;;;;;;;3.70;59.00;;;;;;4119596;28;19925;-82
2023/04/30 01:48:25;;;;;;;;;;;3.70;59.50;;;;;;4114126;28;19938;-82
2023/04/30 01:50:44;;;;;;;;;;;3.60;58.90;;;;;;4110947;28;20034;-82
2023/04/30 01:53:06;;;;;;;;;;;3.60;58.90;;;;;;4113461;28;19921;-82
2023/04/30 01:55:33;;;;;;;;;;;3.60;58.90;;;;;;4126419;28;19920;-83
2023/04/30 01:57:56;;;;;;;;;;;3.50;58.90;;;;;;4112425;28;20383;-82
2023/04/30 02:00:16;;;;;;;;;;;3.50;58.90;;;;;;4111815;28;19964;-82
2023/04/30 02:02:35;;;;;;;;;;;3.50;58.90;;;;;;4111806;28;19930;-82
2023/04/30 02:04:54;;;;;;;;;;;3.50;59.40;;;;;;4113307;28;19930;-82
2023/04/30 02:07:28;;;;;;;;;;;3.50;58.80;;;;;;4106807;28;19925;-82
2023/04/30 02:09:47;;;;;;;;;;;3.40;58.70;;;;;;4110056;28;19968;-82
2023/04/30 02:12:06;;;;;;;;;;;3.40;58.80;;;;;;4110864;28;19964;-82
2023/04/30 02:14:25;;;;;;;;;;;3.30;58.80;;;;;;4114011;28;19925;-82
2023/04/30 02:16:45;;;;;;;;;;;3.30;58.80;;;;;;4124731;28;19921;-82
2023/04/30 02:19:04;;;;;;;;;;;3.30;58.90;;;;;;4112506;28;19929;-82
2023/04/30 02:21:23;;;;;;;;;;;3.20;58.90;;;;;;4111979;28;19925;-82
2023/04/30 02:23:42;;;;;;;;;;;3.20;59.50;;;;;;4114172;28;19965;-82
2023/04/30 02:26:02;;;;;;;;;;;3.20;59.00;;;;;;4111868;28;20141;-82
2023/04/30 02:28:21;;;;;;;;;;;3.20;59.00;;;;;;4113684;28;20488;-82
2023/04/30 02:30:40;;;;;;;;;;;3.10;59.50;;;;;;4113074;28;19928;-82
2023/04/30 02:33:04;;;;;;;;;;;3.10;59.00;;;;;;4114255;28;19928;-83
2023/04/30 02:35:23;;;;;;;;;;;3.10;59.00;;;;;;4111849;28;19969;-82
2023/04/30 02:37:42;;;;;;;;;;;3.10;59.60;;;;;;4108323;28;19933;-82
2023/04/30 02:40:01;;;;;;;;;;;3.00;59.00;;;;;;4124457;28;19928;-82
2023/04/30 02:42:20;;;;;;;;;;;3.10;59.60;;;;;;4113933;28;19926;-82
2023/04/30 02:44:40;;;;;;;;;;;2.90;59.00;;;;;;4113110;28;19937;-82
2023/04/30 02:46:59;;;;;;;;;;;2.90;58.90;;;;;;4110147;28;19937;-83
2023/04/30 02:49:18;;;;;;;;;;;2.90;59.00;;;;;;4112129;28;20359;-82
2023/04/30 02:51:38;;;;;;;;;;;2.90;59.00;;;;;;4111812;28;20127;-82
2023/04/30 02:53:57;;;;;;;;;;;3.00;59.10;;;;;;4128809;28;19921;-82
2023/04/30 02:56:16;;;;;;;;;;;2.90;59.10;;;;;;4125591;28;19949;-82
2023/04/30 02:58:36;;;;;;;;;;;2.80;59.10;;;;;;4113138;28;19929;-82
2023/04/30 03:00:55;;;;;;;;;;;2.80;59.20;;;;;;4109814;28;19920;-83
2023/04/30 03:03:14;;;;;;;;;;;2.80;59.20;;;;;;4113435;28;19933;-83
2023/04/30 03:05:33;;;;;;;;;;;2.80;59.20;;;;;;4116597;28;19921;-83
2023/04/30 03:07:52;;;;;;;;;;;2.90;59.20;;;;;;4116628;28;20396;-83
2023/04/30 03:10:12;;;;;;;;;;;2.90;59.30;;;;;;4114411;28;19925;-83
2023/04/30 03:12:31;;;;;;;;;;;2.80;59.40;;;;;;4130766;28;19925;-83
2023/04/30 03:14:51;;;;;;;;;;;2.90;59.50;;;;;;4116206;28;20013;-82
2023/04/30 03:17:10;;;;;;;;;;;2.80;59.50;;;;;;4114078;28;20387;-82
2023/04/30 03:19:29;;;;;;;;;;;2.90;59.70;;;;;;4114815;28;20546;-83
2023/04/30 03:21:48;;;;;;;;;;;2.90;59.70;;;;;;4116882;28;19941;-83
2023/04/30 03:24:08;;;;;;;;;;;3.00;59.80;;;;;;4116336;28;19969;-84
2023/04/30 03:26:27;;;;;;;;;;;2.90;59.80;;;;;;4115573;28;19925;-83
2023/04/30 03:28:46;;;;;;;;;;;2.90;60.50;;;;;;4117070;28;20335;-83
2023/04/30 03:31:05;;;;;;;;;;;2.90;60.50;;;;;;4126712;28;20003;-83
2023/04/30 03:33:24;;;;;;;;;;;3.00;59.90;;;;;;4114466;28;19997;-82
2023/04/30 03:35:44;;;;;;;;;;;2.90;60.50;;;;;;4114753;28;19925;-83
2023/04/30 03:38:03;;;;;;;;;;;2.90;59.80;;;;;;4115167;28;20324;-83
2023/04/30 03:40:22;;;;;;;;;;;2.90;59.90;;;;;;4117147;28;19949;-83
2023/04/30 03:42:42;;;;;;;;;;;2.90;59.90;;;;;;4113563;28;20000;-82
2023/04/30 03:45:01;;;;;;;;;;;2.90;59.90;;;;;;4117792;28;19952;-82
2023/04/30 03:47:20;;;;;;;;;;;2.80;60.00;;;;;;4117040;28;19997;-82
2023/04/30 03:49:39;;;;;;;;;;;2.90;60.80;;;;;;4116575;28;19934;-83
2023/04/30 03:51:59;;;;;;;;;;;2.80;60.00;;;;;;4113407;28;19961;-83
2023/04/30 03:54:19;;;;;;;;;;;2.80;60.00;;;;;;4114304;28;19929;-83
2023/04/30 03:56:38;;;;;;;;;;;2.80;60.00;;;;;;4111226;28;19928;-82
2023/04/30 03:58:57;;;;;;;;;;;2.80;60.20;;;;;;4116436;28;19921;-83
2023/04/30 04:01:16;;;;;;;;;;;2.80;60.10;;;;;;4112373;28;19932;-83
2023/04/30 04:03:36;;;;;;;;;;;2.80;60.20;;;;;;4112440;28;20379;-82
2023/04/30 04:05:55;;;;;;;;;;;2.80;60.20;;;;;;4128085;28;20002;-83
2023/04/30 04:08:14;;;;;;;;;;;2.80;60.30;;;;;;4125266;28;20012;-83
2023/04/30 04:10:34;;;;;;;;;;;2.80;60.30;;;;;;4112512;28;19933;-83
2023/04/30 04:12:34;;;;;;;;;;;2.80;60.30;;;;;;4112170;28;19922;-83
2023/04/30 04:14:35;;;;;;;;;;;2.80;60.40;;;;;;4112820;28;19918;-82
2023/04/30 04:16:35;;;;;;;;;;;2.80;60.50;;;;;;4111045;28;19918;-83
2023/04/30 04:18:36;;;;;;;;;;;2.80;60.50;;;;;;4113648;28;19959;-82
2023/04/30 04:20:37;;;;;;;;;;;2.80;60.60;;;;;;4119283;28;20019;-83
2023/04/30 04:22:38;;;;;;;;;;;2.80;60.60;;;;;;4116595;28;19924;-83
2023/04/30 04:24:38;;;;;;;;;;;2.80;60.80;;;;;;4115411;28;19918;-83
2023/04/30 04:26:39;;;;;;;;;;;2.80;61.00;;;;;;4091527;28;19942;-82
2023/04/30 04:28:39;;;;;;;;;;;2.90;61.20;;;;;;4114287;28;19925;-83
2023/04/30 04:30:40;;;;;;;;;;;2.90;61.20;;;;;;4117629;28;19977;-82
2023/04/30 04:32:45;;;;;;;;;;;2.90;61.10;;;;;;4129423;28;19917;-82
2023/04/30 04:34:46;;;;;;;;;;;3.00;61.30;;;;;;4116732;28;19922;-83
2023/04/30 04:36:46;;;;;;;;;;;3.00;61.30;;;;;;4115402;28;19977;-82
2023/04/30 04:38:47;;;;;;;;;;;3.00;61.30;;;;;;4126117;28;19924;-82
2023/04/30 04:40:52;;;;;;;;;;;3.10;61.40;;;;;;4115973;28;19918;-82
2023/04/30 04:42:54;;;;;;;;;;;3.10;61.40;;;;;;4112516;28;19925;-82
2023/04/30 04:44:55;;;;;;;;;;;3.10;61.60;;;;;;4117057;28;19941;-83
2023/04/30 04:46:55;;;;;;;;;;;3.20;61.90;;;;;;4118609;28;19945;-82
2023/04/30 04:48:56;;;;;;;;;;;3.30;62.00;;;;;;4123592;28;19925;-81
2023/04/30 04:50:57;;;;;;;;;;;3.30;62.20;;;;;;4119799;28;19990;-82
2023/04/30 04:52:57;;;;;;;;;;;3.40;62.30;;;;;;4115348;28;19918;-83
2023/04/30 04:54:58;;;;;;;;;;;3.40;62.30;;;;;;4116373;28;19985;-82
2023/04/30 04:56:58;;;;;;;;;;;3.50;62.20;;;;;;4112420;28;19918;-82
2023/04/30 04:58:59;;;;;;;;;;;3.60;62.40;;;;;;4090400;28;20005;-82
2023/04/30 05:01:00;;;;;;;;;;;3.60;62.40;;;;;;4090259;28;19980;-83
2023/04/30 05:03:00;;;;;;;;;;;3.70;62.40;;;;;;4108719;28;19926;-83
2023/04/30 05:05:01;;;;;;;;;;;3.80;62.60;;;;;;4107594;28;19922;-83
2023/04/30 05:07:02;;;;;;;;;;;3.80;62.50;;;;;;4124866;28;20015;-83
2023/04/30 05:09:05;;;;;;;;;;;3.90;62.40;;;;;;4109466;28;20483;-83
2023/04/30 05:11:06;;;;;;;;;;;4.00;62.60;;;;;;4109988;28;19922;-83
2023/04/30 05:13:06;;;;;;;;;;;4.10;62.80;;;;;;4108860;28;20034;-83
2023/04/30 05:15:07;;;;;;;;;;;4.20;63.00;;;;;;4110554;28;19914;-82
2023/04/30 05:17:07;;;;;;;;;;;4.30;63.00;;;;;;4110670;28;19926;-83
2023/04/30 05:19:08;;;;;;;;;;;4.30;63.70;;;;;;4107777;28;19914;-83
2023/04/30 05:21:09;;;;;;;;;;;4.50;63.20;;;;;;4106977;28;20308;-83
2023/04/30 05:23:09;;;;;;;;;;;4.50;63.40;;;;;;4108189;28;19915;-83
2023/04/30 05:25:10;;;;;;;;;;;4.50;63.20;;;;;;4108344;28;19922;-83
2023/04/30 05:27:11;;;;;;;;;;;4.60;63.30;;;;;;4111391;28;20416;-83
2023/04/30 05:29:11;;;;;;;;;;;4.70;63.30;;;;;;4109167;28;19957;-82
2023/04/30 05:31:12;;;;;;;;;;;4.90;63.10;;;;;;4108218;28;19926;-82
2023/04/30 05:33:12;;;;;;;;;;;4.90;63.00;;;;;;4110243;28;20376;-83
2023/04/30 05:35:13;;;;;;;;;;;5.00;63.30;;;;;;4107601;28;19918;-82
2023/04/30 05:37:16;;;;;;;;;;;5.10;63.20;;;;;;4109644;28;20501;-83
2023/04/30 05:39:16;;;;;;;;;;;5.20;63.20;;;;;;4113813;28;20550;-83
2023/04/30 05:41:17;;;;;;;;;;;5.30;63.00;;;;;;4144074;28;19933;-82
2023/04/30 05:43:17;;;;;;;;;;;5.40;62.80;;;;;;4129482;28;19922;-82
2023/04/30 05:45:18;;;;;;;;;;;5.50;62.60;;;;;;4129661;28;19902;-82
2023/04/30 05:47:19;;;;;;;;;;;5.60;62.50;;;;;;4147957;28;19925;-82
2023/04/30 05:49:19;;;;;;;;;;;5.60;62.20;;;;;;4123158;28;20119;-82
2023/04/30 05:51:20;;;;;;;;;;;5.70;62.00;;;;;;4121222;28;19926;-83
2023/04/30 05:53:20;;;;;;;;;;;5.70;61.80;;;;;;4103114;28;19922;-82
2023/04/30 05:55:21;;;;;;;;;;;5.80;61.70;;;;;;4078867;28;19918;-82
2023/04/30 05:57:21;;;;;;;;;;;5.90;61.70;;;;;;4106924;28;20288;-81
2023/04/30 05:59:22;;;;;;;;;;;5.90;61.70;;;;;;4101126;28;20459;-82
2023/04/30 06:01:24;;;;;;;;;;;6.00;61.80;;;;;;4103122;28;20005;-83
2023/04/30 06:03:24;;;;;;;;;;;6.10;61.80;;;;;;4118284;28;20326;-83
2023/04/30 06:05:25;;;;;;;;;;;6.20;61.10;;;;;;4103450;28;19950;-81
2023/04/30 06:07:25;;;;;;;;;;;6.10;60.60;;;;;;4104299;28;19928;-83
2023/04/30 06:09:26;;;;;;;;;;;6.20;60.80;;;;;;4101081;28;19970;-81
2023/04/30 06:11:27;;;;;;;;;;;6.30;60.40;;;;;;4102091;28;19914;-84
2023/04/30 06:13:27;;;;;;;;;;;6.30;59.50;;;;;;4103859;28;19921;-83
2023/04/30 06:15:28;;;;;;;;;;;6.40;59.70;;;;;;4104730;28;20143;-83
2023/04/30 06:17:28;;;;;;;;;;;6.50;59.50;;;;;;4118754;28;19918;-83
2023/04/30 06:19:29;;;;;;;;;;;6.50;59.60;;;;;;4101053;28;19926;-83
2023/04/30 06:21:29;;;;;;;;;;;6.60;59.60;;;;;;4117296;28;19917;-83
2023/04/30 06:23:30;;;;;;;;;;;6.70;59.40;;;;;;4103143;28;19962;-83
2023/04/30 06:25:30;;;;;;;;;;;6.80;59.60;;;;;;4104797;28;19990;-83
2023/04/30 06:27:31;;;;;;;;;;;6.80;59.40;;;;;;4104303;28;19918;-83
2023/04/30 06:29:32;;;;;;;;;;;6.90;59.00;;;;;;4087058;28;19923;-83
2023/04/30 06:31:32;;;;;;;;;;;7.00;59.20;;;;;;4102907;28;19918;-83
2023/04/30 06:33:33;;;;;;;;;;;7.00;58.50;;;;;;4101547;28;19920;-83
2023/04/30 06:35:34;;;;;;;;;;;7.10;58.40;;;;;;4089585;28;20023;-83
2023/04/30 06:39:52;;;;;;;;;;;7.30;57.60;;;;;;4177410;22;19929;-84
2023/04/30 06:42:13;;;;;;;;;;;7.30;57.30;;;;;;4103365;28;20631;-84
2023/04/30 06:44:16;;;;;;;;;;;7.40;56.90;;;;;;4123001;28;19921;-84
2023/04/30 06:46:53;;;;;;;;;;;7.40;56.80;;;;;;4116277;28;20007;-84
2023/04/30 06:48:57;;;;;;;;;;;7.50;57.20;;;;;;4102996;28;20422;-84
2023/04/30 06:50:58;;;;;;;;;;;7.50;56.80;;;;;;4103651;28;19930;-83
2023/04/30 06:52:58;;;;;;;;;;;7.60;56.80;;;;;;4140924;22;19930;-83
2023/04/30 06:54:59;;;;;;;;;;;7.60;56.30;;;;;;4125164;28;19921;-83
2023/04/30 06:57:00;;;;;;;;;;;7.60;56.00;;;;;;4126587;28;20322;-83
2023/04/30 06:59:01;;;;;;;;;;;7.60;55.60;;;;;;4129291;28;19918;-83
2023/04/30 07:01:02;;;;;;;;;;;7.70;55.10;;;;;;4124438;28;20009;-83
2023/04/30 07:03:03;;;;;;;;;;;7.80;55.40;;;;;;4105302;28;19918;-83
2023/04/30 07:05:04;;;;;;;;;;;7.80;54.70;;;;;;4124443;28;21184;-83
2023/04/30 07:07:14;;;;;;;;;;;7.80;54.90;;;;;;4137966;28;19928;-83
2023/04/30 07:09:21;;;;;;;;;;;7.80;53.60;;;;;;4098421;28;20185;-83
2023/04/30 07:11:22;;;;;;;;;;;7.90;53.80;;;;;;4128682;28;19918;-83
2023/04/30 07:13:22;;;;;;;;;;;7.90;53.30;;;;;;4109188;28;19919;-83
2023/04/30 07:15:23;;;;;;;;;;;7.90;52.60;;;;;;4138656;28;19964;-84
2023/04/30 07:17:24;;;;;;;;;;;7.90;52.70;;;;;;4123010;28;19922;-83
2023/04/30 07:19:25;;;;;;;;;;;8.00;52.50;;;;;;4121340;28;19994;-83
2023/04/30 07:21:26;;;;;;;;;;;8.00;52.30;;;;;;4127183;28;19918;-83
2023/04/30 07:23:27;;;;;;;;;;;8.10;53.10;;;;;;4106954;28;20024;-84
2023/04/30 07:25:27;;;;;;;;;;;8.10;53.60;;;;;;4107372;28;19985;-83
2023/04/30 07:27:28;;;;;;;;;;;8.20;52.70;;;;;;4121326;28;20398;-84
2023/04/30 07:29:29;;;;;;;;;;;8.20;53.20;;;;;;4107096;28;19945;-84
2023/04/30 07:31:29;;;;;;;;;;;8.30;53.40;;;;;;4124663;28;19921;-83
2023/04/30 07:33:30;;;;;;;;;;;8.30;53.20;;;;;;4124487;28;19922;-83
2023/04/30 07:35:31;;;;;;;;;;;8.40;53.30;;;;;;4121508;28;19933;-84
2023/04/30 07:37:31;;;;;;;;;;;8.50;52.30;;;;;;4117748;28;19928;-84
2023/04/30 07:39:32;;;;;;;;;;;8.60;52.80;;;;;;4118347;28;19922;-84
2023/04/30 07:41:32;;;;;;;;;;;8.70;53.00;;;;;;4126421;28;19922;-84
2023/04/30 07:43:33;;;;;;;;;;;8.70;52.20;;;;;;4112761;28;20000;-83
2023/04/30 07:45:34;;;;;;;;;;;8.80;52.60;;;;;;4124881;28;19977;-84
2023/04/30 07:47:35;;;;;;;;;;;8.90;52.70;;;;;;4093661;28;19926;-84
2023/04/30 07:49:35;;;;;;;;;;;9.00;52.50;;;;;;4092980;28;19923;-83
2023/04/30 07:51:38;;;;;;;;;;;9.00;51.80;;;;;;4122796;28;19918;-83
2023/04/30 07:53:39;;;;;;;;;;;9.00;51.80;;;;;;4107740;28;19960;-84
2023/04/30 07:55:40;;;;;;;;;;;9.10;51.40;;;;;;4128427;28;19961;-83
2023/04/30 07:57:40;;;;;;;;;;;9.10;51.20;;;;;;4107098;28;20342;-83
2023/04/30 07:59:41;;;;;;;;;;;9.10;51.30;;;;;;4124046;28;19941;-83
2023/04/30 08:01:42;;;;;;;;;;;9.20;51.40;;;;;;4094152;28;19922;-84
2023/04/30 08:03:42;;;;;;;;;;;9.10;51.30;;;;;;4108066;28;19960;-84
2023/04/30 08:05:43;;;;;;;;;;;9.20;51.50;;;;;;4124915;28;19962;-84
2023/04/30 08:07:47;;;;;;;;;;;9.20;51.30;;;;;;4122437;28;19999;-84
2023/04/30 08:09:47;;;;;;;;;;;9.20;50.80;;;;;;4123813;28;19918;-84
2023/04/30 08:11:48;;;;;;;;;;;9.20;50.70;;;;;;4097843;28;19945;-83
2023/04/30 08:13:48;;;;;;;;;;;9.20;50.20;;;;;;4110479;28;19929;-84
2023/04/30 08:15:49;;;;;;;;;;;9.20;50.10;;;;;;4114101;28;19917;-83
2023/04/30 08:17:50;;;;;;;;;;;9.20;50.00;;;;;;4122566;28;19925;-84
2023/04/30 08:19:51;;;;;;;;;;;9.20;49.80;;;;;;4104547;28;20438;-84
2023/04/30 08:21:52;;;;;;;;;;;9.20;49.80;;;;;;4127733;28;19910;-84
2023/04/30 08:23:56;;;;;;;;;;;9.20;49.40;;;;;;4104987;28;19914;-84
2023/04/30 08:25:56;;;;;;;;;;;9.20;48.70;;;;;;4125552;28;19945;-84
2023/04/30 08:27:57;;;;;;;;;;;9.10;49.00;;;;;;4102163;28;20355;-84
2023/04/30 08:29:57;;;;;;;;;;;9.10;49.30;;;;;;4107998;28;20432;-84
2023/04/30 08:31:59;;;;;;;;;;;9.10;49.80;;;;;;4087275;28;19922;-84
2023/04/30 08:34:00;;;;;;;;;;;9.20;50.00;;;;;;4133973;28;19972;-84
2023/04/30 08:36:01;;;;;;;;;;;9.20;50.40;;;;;;4108662;28;19914;-83
2023/04/30 08:38:01;;;;;;;;;;;9.40;50.10;;;;;;4116047;28;19926;-84
2023/04/30 08:40:03;;;;;;;;;;;9.30;50.40;;;;;;4111430;28;19922;-83
2023/04/30 08:42:07;;;;;;;;;;;9.40;50.50;;;;;;4126834;28;19914;-83
2023/04/30 08:44:09;;;;;;;;;;;9.50;50.00;;;;;;4108022;28;19922;-84
2023/04/30 08:46:12;;;;;;;;;;;9.60;50.00;;;;;;4134449;28;19975;-84
2023/04/30 08:48:15;;;;;;;;;;;9.60;49.80;;;;;;4119408;28;20378;-83
2023/04/30 08:50:16;;;;;;;;;;;9.70;49.60;;;;;;4091290;28;19926;-84
2023/04/30 08:52:17;;;;;;;;;;;9.70;50.00;;;;;;4109734;28;19922;-84
2023/04/30 08:54:18;;;;;;;;;;;9.90;49.40;;;;;;4099843;28;19926;-85
2023/04/30 08:56:18;;;;;;;;;;;9.90;49.00;;;;;;4126516;28;20314;-83
2023/04/30 08:58:21;;;;;;;;;;;9.90;49.10;;;;;;4111260;28;19922;-84
2023/04/30 09:00:22;;;;;;;;;;;10.00;49.30;;;;;;4129690;28;19914;-84
2023/04/30 09:02:22;;;;;;;;;;;10.00;49.60;;;;;;4114601;28;19914;-84
2023/04/30 09:04:23;;;;;;;;;;;10.10;48.90;;;;;;4114504;28;19915;-85
2023/04/30 09:06:24;;;;;;;;;;;10.20;48.90;;;;;;4122343;28;19929;-85
2023/04/30 09:08:40;;;;;;;;;;;10.20;48.90;;;;;;4107093;28;19922;-84
2023/04/30 09:10:41;;;;;;;;;;;10.20;48.50;;;;;;4108745;28;19914;-84
2023/04/30 09:12:44;;;;;;;;;;;10.20;48.60;;;;;;4104247;28;19922;-84
2023/04/30 09:14:58;;;;;;;;;;;10.30;48.20;;;;;;4140746;28;19928;-85
2023/04/30 09:16:59;;;;;;;;;;;10.30;48.40;;;;;;4137359;28;20726;-84
2023/04/30 09:19:02;;;;;;;;;;;10.30;48.70;;;;;;4106048;28;19922;-84
2023/04/30 09:21:07;;;;;;;;;;;10.20;49.00;;;;;;4125092;28;20015;-84
2023/04/30 09:23:09;;;;;;;;;;;10.20;48.80;;;;;;4108377;28;19914;-84
2023/04/30 09:25:10;;;;;;;;;;;10.30;49.20;;;;;;4119751;28;19913;-84
2023/04/30 09:27:18;;;;;;;;;;;10.30;48.20;;;;;;4110745;28;19996;-84
2023/04/30 09:29:19;;;;;;;;;;;10.30;48.20;;;;;;4119908;28;19910;-84
2023/04/30 09:31:20;;;;;;;;;;;10.30;47.40;;;;;;4091223;28;19914;-84
2023/04/30 09:33:21;;;;;;;;;;;10.30;47.80;;;;;;4109613;28;20307;-83
2023/04/30 09:35:32;;;;;;;;;;;10.30;48.00;;;;;;4095519;28;20009;-85
2023/04/30 09:37:36;;;;;;;;;;;10.30;47.90;;;;;;4126994;28;19917;-84
2023/04/30 09:39:47;;;;;;;;;;;10.40;48.00;;;;;;4120442;28;19933;-85
2023/04/30 09:41:49;;;;;;;;;;;10.40;48.40;;;;;;4120599;28;19918;-85
2023/04/30 09:43:50;;;;;;;;;;;10.50;48.60;;;;;;4136389;28;20342;-86
2023/04/30 09:45:51;;;;;;;;;;;10.60;48.10;;;;;;4109677;28;20462;-85
2023/04/30 09:47:51;;;;;;;;;;;10.60;48.30;;;;;;4102045;28;19936;-84
2023/04/30 09:49:52;;;;;;;;;;;10.70;48.50;;;;;;4122727;28;19929;-85
2023/04/30 09:51:54;;;;;;;;;;;10.70;48.00;;;;;;4122004;28;20386;-85
2023/04/30 09:53:55;;;;;;;;;;;10.80;48.00;;;;;;4105421;28;20006;-84
2023/04/30 09:56:19;;;;;;;;;;;10.80;47.70;;;;;;4127219;28;20314;-85
2023/04/30 09:58:21;;;;;;;;;;;10.90;47.90;;;;;;4125539;28;20325;-85
2023/04/30 10:00:25;;;;;;;;;;;10.90;48.00;;;;;;4142063;28;19913;-86
2023/04/30 10:02:46;;;;;;;;;;;10.90;47.70;;;;;;4131495;28;20286;-85
2023/04/30 10:04:49;;;;;;;;;;;11.00;48.20;;;;;;4113404;28;19926;-85
2023/04/30 10:06:53;;;;;;;;;;;11.00;47.60;;;;;;4126226;28;19937;-84
2023/04/30 10:08:55;;;;;;;;;;;11.00;47.80;;;;;;4112352;28;19981;-85
2023/04/30 10:11:03;;;;;;;;;;;11.00;47.70;;;;;;4126093;28;19913;-86
2023/04/30 10:13:07;;;;;;;;;;;11.00;47.30;;;;;;4124463;28;19910;-85
2023/04/30 10:15:11;;;;;;;;;;;11.10;47.10;;;;;;4123540;28;19917;-85
2023/04/30 10:17:13;;;;;;;;;;;11.10;46.90;;;;;;4114225;28;19921;-84
2023/04/30 10:19:31;;;;;;;;;;;11.20;46.50;;;;;;4137751;28;19916;-85
2023/04/30 10:21:32;;;;;;;;;;;11.20;45.40;;;;;;4112819;28;19945;-85
2023/04/30 10:23:33;;;;;;;;;;;11.20;45.10;;;;;;4126671;28;19941;-85
2023/04/30 10:25:37;;;;;;;;;;;11.30;45.00;;;;;;4124505;28;19910;-86
2023/04/30 10:27:40;;;;;;;;;;;11.20;45.40;;;;;;4110672;28;19914;-85
2023/04/30 10:29:41;;;;;;;;;;;11.30;45.50;;;;;;4139607;28;20041;-84
2023/04/30 10:31:43;;;;;;;;;;;11.30;45.50;;;;;;4124315;28;20285;-85
2023/04/30 10:33:50;;;;;;;;;;;11.40;45.20;;;;;;4109144;28;19916;-85
2023/04/30 10:36:03;;;;;;;;;;;11.30;45.80;;;;;;4108113;28;19918;-86
2023/04/30 10:38:24;;;;;;;;;;;11.40;45.60;;;;;;4123081;28;19920;-84
2023/04/30 10:40:27;;;;;;;;;;;11.40;44.60;;;;;;4126710;28;19922;-85
2023/04/30 10:42:34;;;;;;;;;;;11.50;45.40;;;;;;4138534;28;19913;-86
2023/04/30 10:44:55;;;;;;;;;;;11.60;45.30;;;;;;4125053;28;19917;-85
2023/04/30 10:47:18;;;;;;;;;;;11.50;45.20;;;;;;4123429;28;19918;-85
2023/04/30 10:49:41;;;;;;;;;;;11.40;45.20;;;;;;4122286;28;19906;-85
2023/04/30 10:52:03;;;;;;;;;;;11.40;44.90;;;;;;4120127;28;19914;-85
2023/04/30 10:54:24;;;;;;;;;;;11.40;45.10;;;;;;4123467;28;19996;-85
2023/04/30 10:56:32;;;;;;;;;;;11.40;45.30;;;;;;4123568;28;19906;-85
2023/04/30 10:58:33;;;;;;;;;;;11.40;45.50;;;;;;4122576;28;19963;-85
2023/04/30 11:00:34;;;;;;;;;;;11.40;45.90;;;;;;4126305;28;19906;-85
2023/04/30 11:02:39;;;;;;;;;;;11.50;46.00;;;;;;4123581;28;20011;-85
2023/04/30 11:05:03;;;;;;;;;;;11.50;46.10;;;;;;4127621;28;19906;-85
2023/04/30 11:07:08;;;;;;;;;;;11.60;45.70;;;;;;4118249;28;19914;-85
2023/04/30 11:09:09;;;;;;;;;;;11.70;45.70;;;;;;4112041;28;19913;-86
2023/04/30 11:11:10;;;;;;;;;;;11.70;46.10;;;;;;4122510;28;19909;-85
2023/04/30 11:13:10;;;;;;;;;;;11.80;46.20;;;;;;4120821;28;19918;-85
2023/04/30 11:15:12;;;;;;;;;;;11.90;45.50;;;;;;4123111;28;20464;-86
2023/04/30 11:17:21;;;;;;;;;;;11.90;45.70;;;;;;4127241;28;19969;-85
2023/04/30 11:19:21;;;;;;;;;;;11.90;44.80;;;;;;4123907;28;19910;-85
2023/04/30 11:21:22;;;;;;;;;;;12.00;44.80;;;;;;4123265;28;19952;-85
2023/04/30 11:23:24;;;;;;;;;;;12.10;44.90;;;;;;4104896;28;19918;-85
2023/04/30 11:25:25;;;;;;;;;;;12.10;44.40;;;;;;4108042;28;19970;-86
2023/04/30 11:27:27;;;;;;;;;;;12.10;43.50;;;;;;4104738;28;19916;-85
2023/04/30 11:29:28;;;;;;;;;;;12.20;44.30;;;;;;4109904;28;19918;-84
2023/04/30 11:31:32;;;;;;;;;;;12.20;44.00;;;;;;4108411;28;19906;-84
2023/04/30 11:33:33;;;;;;;;;;;12.10;43.60;;;;;;4123048;28;19917;-85
2023/04/30 11:35:34;;;;;;;;;;;12.10;43.40;;;;;;4106138;28;19944;-85
2023/04/30 11:37:36;;;;;;;;;;;12.20;44.20;;;;;;4125871;28;19920;-88
2023/04/30 11:39:37;;;;;;;;;;;12.20;44.50;;;;;;4128859;28;19920;-86
2023/04/30 11:41:42;;;;;;;;;;;12.30;44.20;;;;;;4118397;28;19918;-85
2023/04/30 11:43:42;;;;;;;;;;;12.20;44.60;;;;;;4122305;28;19922;-86
2023/04/30 11:45:43;;;;;;;;;;;12.30;44.70;;;;;;4112041;28;19966;-85
2023/04/30 11:47:45;;;;;;;;;;;12.40;44.00;;;;;;4125605;28;19914;-85
2023/04/30 11:49:45;;;;;;;;;;;12.30;43.00;;;;;;4125296;28;20346;-86
2023/04/30 11:51:49;;;;;;;;;;;12.30;43.00;;;;;;4105322;28;19986;-85
2023/04/30 11:53:50;;;;;;;;;;;12.40;43.20;;;;;;4126783;28;19925;-85
2023/04/30 11:55:52;;;;;;;;;;;12.40;42.90;;;;;;4122661;28;20418;-85
2023/04/30 11:57:54;;;;;;;;;;;12.40;42.30;;;;;;4111419;28;20008;-85
2023/04/30 11:59:55;;;;;;;;;;;12.50;42.50;;;;;;4122252;28;19910;-85
2023/04/30 12:01:56;;;;;;;;;;;12.40;42.40;;;;;;4126306;28;20032;-85
2023/04/30 12:03:56;;;;;;;;;;;12.50;43.00;;;;;;4105687;28;20268;-87
2023/04/30 12:05:57;;;;;;;;;;;12.60;42.70;;;;;;4097172;28;19929;-85
2023/04/30 12:08:08;;;;;;;;;;;12.60;42.90;;;;;;4121633;28;20037;-86
2023/04/30 12:10:11;;;;;;;;;;;12.60;43.10;;;;;;4123591;28;20405;-86
2023/04/30 12:12:12;;;;;;;;;;;12.70;43.00;;;;;;4124613;28;19918;-86
2023/04/30 12:14:13;;;;;;;;;;;12.80;42.90;;;;;;4124673;28;19991;-85
2023/04/30 12:16:14;;;;;;;;;;;12.80;43.30;;;;;;4127737;28;19914;-86
2023/04/30 12:18:15;;;;;;;;;;;12.90;42.70;;;;;;4124616;28;19976;-86
2023/04/30 12:20:15;;;;;;;;;;;12.90;42.80;;;;;;4125712;28;19925;-86
2023/04/30 12:22:16;;;;;;;;;;;12.90;41.70;;;;;;4127330;28;19936;-85
2023/04/30 12:24:17;;;;;;;;;;;12.90;41.60;;;;;;4124800;28;19921;-86
2023/04/30 12:26:18;;;;;;;;;;;12.90;41.10;;;;;;4128414;28;19918;-86
2023/04/30 12:28:18;;;;;;;;;;;12.90;41.60;;;;;;4121230;28;19921;-85
2023/04/30 12:30:20;;;;;;;;;;;12.90;41.80;;;;;;4109501;28;19911;-87
2023/04/30 12:32:20;;;;;;;;;;;12.90;41.60;;;;;;4110808;28;19910;-85
2023/04/30 12:34:25;;;;;;;;;;;12.90;41.00;;;;;;4112425;28;19910;-87